Time;durP1;ratioP1;P1;durP2;ratioP2;P2;SDS_P1;SDS_P2;PMS_P1;PMS_P2;Temp;Humidity;BMP_temperature;BMP_pressure;BME280_temperature;BME280_humidity;BME280_pressure;Samples;Min_cycle;Max_cycle;Signal;HPM_P1;HPM_P2
2021/12/15 00:01:09;;;;;;;26.13;13.07;;;7.10;99.90;;;;;;5093360;28;20199;-69
2021/12/15 00:03:35;;;;;;;27.97;13.63;;;7.10;99.90;;;;;;5075657;28;20207;-68
2021/12/15 00:06:01;;;;;;;23.87;12.10;;;7.10;99.90;;;;;;5094023;28;20162;-69
2021/12/15 00:08:27;;;;;;;27.07;13.97;;;7.10;99.90;;;;;;5094024;28;20166;-68
2021/12/15 00:10:53;;;;;;;22.40;11.77;;;7.20;99.90;;;;;;5093806;28;20164;-68
2021/12/15 00:13:20;;;;;;;22.17;11.97;;;7.20;99.90;;;;;;5076123;28;20538;-68
2021/12/15 00:15:47;;;;;;;21.47;12.13;;;7.10;99.90;;;;;;5076186;28;20509;-69
2021/12/15 00:18:13;;;;;;;24.17;12.23;;;7.10;99.90;;;;;;5094114;28;20201;-69
2021/12/15 00:20:40;;;;;;;27.33;13.90;;;7.10;99.90;;;;;;5094288;28;20231;-69
2021/12/15 00:23:06;;;;;;;28.63;13.87;;;7.20;99.90;;;;;;5094424;28;20180;-68
2021/12/15 00:25:35;;;;;;;24.00;12.77;;;7.20;99.90;;;;;;5094733;28;20167;-69
2021/12/15 00:28:01;;;;;;;24.23;12.37;;;7.10;99.90;;;;;;5093484;28;20618;-68
2021/12/15 00:30:27;;;;;;;27.67;12.37;;;7.10;99.90;;;;;;5093524;28;20549;-69
2021/12/15 00:32:53;;;;;;;22.57;12.50;;;7.00;99.90;;;;;;5075520;28;20210;-69
2021/12/15 00:35:20;;;;;;;27.47;13.40;;;7.10;99.90;;;;;;5093540;28;20222;-68
2021/12/15 00:37:46;;;;;;;25.20;13.53;;;7.10;99.90;;;;;;5093345;28;20170;-70
2021/12/15 00:40:14;;;;;;;26.27;13.63;;;7.10;99.90;;;;;;5093094;28;20189;-69
2021/12/15 00:42:40;;;;;;;22.77;12.00;;;7.20;99.90;;;;;;5093379;28;20167;-69
2021/12/15 00:45:07;;;;;;;23.67;13.17;;;7.20;99.90;;;;;;5093357;28;20173;-68
2021/12/15 00:47:33;;;;;;;25.70;12.87;;;7.20;99.90;;;;;;5093124;28;20308;-71
2021/12/15 00:50:06;;;;;;;24.80;13.20;;;7.20;99.90;;;;;;5093762;28;20224;-70
2021/12/15 00:52:36;;;;;;;23.97;12.40;;;7.10;99.90;;;;;;5093268;28;20482;-69
2021/12/15 00:55:04;;;;;;;25.83;13.13;;;7.10;99.90;;;;;;5093651;28;20206;-71
2021/12/15 00:57:29;;;;;;;23.63;12.57;;;7.10;99.90;;;;;;5075655;28;20510;-69
2021/12/15 00:59:55;;;;;;;23.57;13.37;;;7.10;99.90;;;;;;5093120;28;20164;-70
2021/12/15 01:02:21;;;;;;;26.90;13.07;;;7.10;99.90;;;;;;5093593;28;20164;-69
2021/12/15 01:04:47;;;;;;;26.17;12.87;;;7.10;99.90;;;;;;5093070;28;20258;-69
2021/12/15 01:07:13;;;;;;;23.83;13.83;;;7.10;99.90;;;;;;5093061;28;20563;-69
2021/12/15 01:09:47;;;;;;;29.17;14.07;;;7.10;99.90;;;;;;5093399;28;20225;-70
2021/12/15 01:12:34;;;;;;;23.43;13.07;;;7.10;99.90;;;;;;5096294;28;20195;-70
2021/12/15 01:20:34;;;;;;;25.77;13.77;;;7.00;99.90;;;;;;5097430;28;20241;-69
2021/12/15 01:23:04;;;;;;;23.87;13.40;;;7.10;99.90;;;;;;5097914;28;20584;-69
2021/12/15 01:25:40;;;;;;;24.20;12.87;;;7.10;99.90;;;;;;5098815;28;20189;-70
2021/12/15 01:28:06;;;;;;;23.00;12.37;;;7.10;99.90;;;;;;5086061;28;20181;-70
2021/12/15 01:30:36;;;;;;;24.40;12.83;;;7.00;99.90;;;;;;5086668;28;20568;-70
2021/12/15 01:33:03;;;;;;;28.93;13.27;;;7.00;99.90;;;;;;5103081;28;20176;-70
2021/12/15 01:35:29;;;;;;;23.70;12.60;;;7.00;99.90;;;;;;5101921;28;20229;-70
2021/12/15 01:37:55;;;;;;;24.20;13.27;;;6.90;99.90;;;;;;5102900;28;20166;-70
2021/12/15 01:40:33;;;;;;;22.73;13.23;;;7.00;99.90;;;;;;5100050;28;20161;-70
2021/12/15 01:43:02;;;;;;;26.03;13.10;;;7.10;99.90;;;;;;5102672;28;20234;-70
2021/12/15 01:48:14;;;;;;;25.37;11.57;;;7.00;99.90;;;;;;5096418;28;20219;-68
2021/12/15 01:50:41;;;;;;;22.63;12.03;;;7.10;99.90;;;;;;5101159;28;20163;-69
2021/12/15 01:53:08;;;;;;;22.70;12.53;;;7.00;99.90;;;;;;5096172;28;20586;-69
2021/12/15 01:55:34;;;;;;;26.40;12.27;;;7.00;99.90;;;;;;5096491;28;20157;-69
2021/12/15 01:58:00;;;;;;;23.37;13.53;;;7.00;99.90;;;;;;5096113;28;20592;-69
2021/12/15 02:00:28;;;;;;;27.13;12.97;;;7.00;99.90;;;;;;5095948;28;20203;-69
2021/12/15 02:02:56;;;;;;;26.80;12.87;;;7.00;99.90;;;;;;5096097;28;20170;-69
2021/12/15 02:05:24;;;;;;;27.70;13.40;;;7.10;99.90;;;;;;5096359;28;20159;-68
2021/12/15 02:07:50;;;;;;;23.13;12.87;;;7.10;99.90;;;;;;5096346;28;20169;-68
2021/12/15 02:10:17;;;;;;;27.20;12.13;;;7.20;99.90;;;;;;5096155;28;20163;-68
2021/12/15 02:12:43;;;;;;;24.30;12.43;;;7.00;99.90;;;;;;5095608;28;20533;-70
2021/12/15 02:15:17;;;;;;;26.90;12.20;;;7.00;99.90;;;;;;5078233;28;20204;-69
2021/12/15 02:17:44;;;;;;;25.73;12.43;;;7.00;99.90;;;;;;5096125;28;20159;-69
2021/12/15 02:20:12;;;;;;;27.57;11.73;;;7.00;99.90;;;;;;5096051;28;20161;-69
2021/12/15 02:22:38;;;;;;;20.83;11.77;;;7.00;99.90;;;;;;5094842;28;20163;-68
2021/12/15 02:25:09;;;;;;;22.37;12.53;;;6.90;99.90;;;;;;5096099;28;20480;-70
2021/12/15 02:27:35;;;;;;;22.73;11.60;;;6.90;99.90;;;;;;5077579;28;20185;-69
2021/12/15 02:30:19;;;;;;;24.13;11.93;;;7.00;99.90;;;;;;5095630;28;20505;-69
2021/12/15 02:32:59;;;;;;;21.97;12.63;;;6.90;99.90;;;;;;5096071;28;20253;-69
2021/12/15 02:38:18;;;;;;;25.73;13.40;;;7.00;99.90;;;;;;5064095;28;20462;-70
2021/12/15 02:40:46;;;;;;;23.30;13.03;;;6.90;99.90;;;;;;5095838;28;20159;-69
2021/12/15 02:43:12;;;;;;;21.77;11.47;;;6.90;99.90;;;;;;5095551;28;20160;-68
2021/12/15 02:45:38;;;;;;;23.47;12.07;;;7.00;99.90;;;;;;5095585;28;20164;-68
2021/12/15 02:48:04;;;;;;;21.00;12.30;;;6.90;99.90;;;;;;5095146;28;20176;-69
2021/12/15 02:50:30;;;;;;;25.63;12.43;;;7.00;99.90;;;;;;5095626;28;20622;-68
2021/12/15 02:52:58;;;;;;;26.33;12.50;;;6.90;99.90;;;;;;5095356;28;20171;-69
2021/12/15 02:55:24;;;;;;;26.67;12.70;;;7.00;99.90;;;;;;5095152;28;20174;-69
2021/12/15 02:57:51;;;;;;;23.80;12.60;;;6.90;99.90;;;;;;5094681;28;20180;-69
2021/12/15 03:00:29;;;;;;;25.87;11.67;;;6.80;99.90;;;;;;5095126;28;20240;-69
2021/12/15 03:05:43;;;;;;;19.63;11.50;;;6.80;99.90;;;;;;5095310;28;20338;-69
2021/12/15 03:08:17;;;;;;;22.17;11.57;;;6.90;99.90;;;;;;5095520;28;20168;-69
2021/12/15 03:16:16;;;;;;;22.80;13.63;;;6.90;99.90;;;;;;5096015;28;20247;-72
2021/12/15 03:18:43;;;;;;;19.60;10.90;;;6.80;99.90;;;;;;5096256;28;20178;-71
2021/12/15 03:21:24;;;;;;;21.00;11.83;;;6.90;99.90;;;;;;5096855;28;20195;-68
2021/12/15 03:23:55;;;;;;;23.37;11.20;;;7.00;99.90;;;;;;5096634;28;20163;-69
2021/12/15 03:26:33;;;;;;;20.73;11.87;;;7.10;99.90;;;;;;5095801;28;20491;-70
2021/12/15 03:39:25;;;;;;;22.13;10.53;;;7.20;99.90;;;;;;5095033;28;20217;-71
2021/12/15 03:42:02;;;;;;;17.20;10.13;;;7.20;99.90;;;;;;5094399;28;20173;-70
2021/12/15 03:44:30;;;;;;;20.67;11.20;;;7.20;99.90;;;;;;5095049;28;20193;-70
2021/12/15 03:46:57;;;;;;;21.23;11.00;;;7.20;99.90;;;;;;5094338;28;20166;-70
2021/12/15 03:49:23;;;;;;;20.47;10.67;;;7.30;99.90;;;;;;5094651;28;20214;-71
2021/12/15 03:51:49;;;;;;;19.50;10.77;;;7.30;99.90;;;;;;5093967;28;20157;-70
2021/12/15 03:54:14;;;;;;;20.20;10.33;;;7.30;99.90;;;;;;5094751;28;20575;-70
2021/12/15 03:56:42;;;;;;;18.27;10.43;;;7.20;99.90;;;;;;5094696;28;20168;-69
2021/12/15 03:59:08;;;;;;;15.67;9.53;;;7.20;99.90;;;;;;5093916;28;20299;-68
2021/12/15 04:01:34;;;;;;;19.00;10.23;;;7.30;99.90;;;;;;5094158;28;20212;-69
2021/12/15 04:04:01;;;;;;;17.07;10.07;;;7.20;99.90;;;;;;5093944;28;20161;-69
2021/12/15 04:06:31;;;;;;;19.10;10.73;;;7.30;99.90;;;;;;5093968;28;20154;-69
2021/12/15 04:08:57;;;;;;;18.73;9.80;;;7.30;99.90;;;;;;5093676;28;20198;-70
2021/12/15 04:11:33;;;;;;;18.27;10.30;;;7.20;99.90;;;;;;5094359;28;20165;-69
2021/12/15 04:14:04;;;;;;;18.87;10.23;;;7.20;99.90;;;;;;5094418;28;20198;-70
2021/12/15 04:18:58;;;;;;;18.07;9.90;;;7.20;99.90;;;;;;5093950;28;20316;-70
2021/12/15 04:21:24;;;;;;;17.37;9.20;;;7.20;99.90;;;;;;5094771;28;20160;-69
2021/12/15 04:23:51;;;;;;;17.87;9.80;;;7.10;99.90;;;;;;5094103;28;20187;-70
2021/12/15 04:26:17;;;;;;;20.23;11.20;;;7.10;99.90;;;;;;5094599;28;20495;-70
2021/12/15 04:28:43;;;;;;;15.67;9.57;;;7.10;99.90;;;;;;5094522;28;20243;-70
2021/12/15 04:31:11;;;;;;;19.23;9.77;;;7.20;99.90;;;;;;5093157;28;20519;-69
2021/12/15 04:33:57;;;;;;;18.03;10.10;;;7.10;99.90;;;;;;5094211;28;20291;-68
2021/12/15 04:36:26;;;;;;;16.27;9.30;;;7.10;99.90;;;;;;5096389;28;20654;-69
2021/12/15 04:38:53;;;;;;;17.20;8.80;;;7.10;99.90;;;;;;5093583;28;20178;-70
2021/12/15 04:41:20;;;;;;;18.47;9.10;;;7.10;99.90;;;;;;5094075;28;20167;-68
2021/12/15 04:43:56;;;;;;;18.93;9.93;;;7.10;99.90;;;;;;5094339;28;20192;-69
2021/12/15 04:46:27;;;;;;;14.13;8.70;;;7.10;99.90;;;;;;5075859;28;20570;-70
2021/12/15 04:48:53;;;;;;;15.23;8.10;;;7.20;99.90;;;;;;5094264;28;20590;-69
2021/12/15 04:51:20;;;;;;;16.27;8.37;;;7.30;99.90;;;;;;5094708;28;20198;-69
2021/12/15 04:53:47;;;;;;;18.37;8.73;;;7.30;99.90;;;;;;5093282;28;20529;-69
2021/12/15 04:56:13;;;;;;;17.57;10.03;;;7.30;99.90;;;;;;5093399;28;20587;-69
2021/12/15 04:58:39;;;;;;;17.40;9.47;;;7.30;99.90;;;;;;5075638;28;20518;-70
2021/12/15 05:01:09;;;;;;;14.27;7.67;;;7.30;99.90;;;;;;5093284;28;20165;-68
2021/12/15 05:03:35;;;;;;;15.03;8.23;;;7.30;99.90;;;;;;5092722;28;20487;-68
2021/12/15 05:06:02;;;;;;;13.23;7.03;;;7.30;99.90;;;;;;5093032;28;20496;-69
2021/12/15 05:08:28;;;;;;;9.90;6.13;;;7.40;99.90;;;;;;5093401;28;20501;-69
2021/12/15 05:10:56;;;;;;;10.50;6.50;;;7.40;99.90;;;;;;5093352;28;20649;-69
2021/12/15 05:13:22;;;;;;;10.73;5.87;;;7.50;99.90;;;;;;5092919;28;20194;-68
2021/12/15 05:15:48;;;;;;;11.00;6.00;;;7.50;99.90;;;;;;5093026;28;20227;-69
2021/12/15 05:18:14;;;;;;;8.43;5.57;;;7.50;99.90;;;;;;5093106;28;20167;-69
2021/12/15 05:20:40;;;;;;;8.03;4.63;;;7.60;99.90;;;;;;5092976;28;20159;-69
2021/12/15 05:23:08;;;;;;;6.13;3.53;;;7.60;99.90;;;;;;5093392;28;20173;-69
2021/12/15 05:25:35;;;;;;;5.63;3.47;;;7.60;99.90;;;;;;5093103;28;20163;-69
2021/12/15 05:28:01;;;;;;;7.73;3.97;;;7.70;99.90;;;;;;5093027;28;20166;-69
2021/12/15 05:30:27;;;;;;;7.37;4.10;;;7.70;99.90;;;;;;5092805;28;20514;-70
2021/12/15 05:32:52;;;;;;;5.60;3.80;;;7.80;99.90;;;;;;5093143;28;20191;-68
2021/12/15 05:35:23;;;;;;;7.80;4.73;;;7.70;99.90;;;;;;5092354;28;20241;-69
2021/12/15 05:37:55;;;;;;;7.23;4.40;;;7.80;99.90;;;;;;5092087;28;20468;-68
2021/12/15 05:40:22;;;;;;;6.53;4.23;;;7.80;99.90;;;;;;5093306;28;20156;-68
2021/12/15 05:42:48;;;;;;;7.50;3.90;;;7.80;99.90;;;;;;5075659;28;20475;-69
2021/12/15 05:45:14;;;;;;;7.17;4.10;;;7.70;99.90;;;;;;5094481;28;20211;-68
2021/12/15 05:47:40;;;;;;;5.70;3.60;;;7.70;99.90;;;;;;5098027;28;20184;-72
2021/12/15 05:50:10;;;;;;;6.13;3.93;;;7.80;99.90;;;;;;5097846;28;20292;-70
2021/12/15 05:52:37;;;;;;;7.20;4.50;;;7.70;99.90;;;;;;5096581;28;20179;-70
2021/12/15 05:55:05;;;;;;;7.10;3.67;;;7.80;99.90;;;;;;5097098;28;20215;-68
2021/12/15 05:57:31;;;;;;;7.27;4.23;;;7.80;99.90;;;;;;5094382;28;20169;-68
2021/12/15 05:59:57;;;;;;;9.40;4.83;;;7.80;99.90;;;;;;5096016;28;20174;-70
2021/12/15 06:02:22;;;;;;;8.10;4.63;;;7.80;99.90;;;;;;5096152;28;20628;-68
2021/12/15 06:04:48;;;;;;;7.47;4.40;;;7.80;99.90;;;;;;5096384;28;20170;-67
2021/12/15 06:07:14;;;;;;;9.20;5.13;;;7.80;99.90;;;;;;5095718;28;20152;-66
2021/12/15 06:09:40;;;;;;;8.53;4.93;;;7.80;99.90;;;;;;5096172;28;20174;-69
2021/12/15 06:12:07;;;;;;;8.20;4.83;;;7.90;99.90;;;;;;5095919;28;20237;-68
2021/12/15 06:14:34;;;;;;;7.87;4.53;;;7.80;99.90;;;;;;5095839;28;20535;-69
2021/12/15 06:17:04;;;;;;;7.57;4.27;;;7.80;99.90;;;;;;5095799;28;20174;-68
2021/12/15 06:19:30;;;;;;;8.37;4.57;;;7.80;99.90;;;;;;5096321;28;20177;-69
2021/12/15 06:21:56;;;;;;;7.87;4.40;;;7.80;99.90;;;;;;5096024;28;20167;-68
2021/12/15 06:24:22;;;;;;;7.43;4.53;;;7.80;99.90;;;;;;5095894;28;20162;-69
2021/12/15 06:26:49;;;;;;;7.07;3.77;;;7.80;99.90;;;;;;5095689;28;20220;-69
2021/12/15 06:29:15;;;;;;;8.60;4.57;;;7.80;99.90;;;;;;5095796;28;20161;-68
2021/12/15 06:31:41;;;;;;;9.33;4.60;;;7.80;99.90;;;;;;5096052;28;20472;-69
2021/12/15 06:34:06;;;;;;;7.83;4.33;;;7.90;99.90;;;;;;5095684;28;20274;-68
2021/12/15 06:36:33;;;;;;;8.57;4.87;;;7.80;99.90;;;;;;5095636;28;20226;-69
2021/12/15 06:38:59;;;;;;;10.97;6.00;;;7.80;99.90;;;;;;5095262;28;20601;-69
2021/12/15 06:41:25;;;;;;;7.27;4.37;;;7.80;99.90;;;;;;5094947;28;20604;-67
2021/12/15 06:43:55;;;;;;;7.27;4.00;;;7.80;99.90;;;;;;5095262;28;20202;-68
2021/12/15 07:00:22;;;;;;;5.17;3.73;;;7.90;99.90;;;;;;5078815;28;20196;-69
2021/12/15 07:02:47;;;;;;;6.57;4.30;;;7.80;99.90;;;;;;5095066;28;20689;-69
2021/12/15 07:05:14;;;;;;;9.13;4.30;;;7.80;99.90;;;;;;5094984;28;20198;-68
2021/12/15 07:07:42;;;;;;;7.33;4.30;;;7.90;99.90;;;;;;5095017;28;20251;-68
2021/12/15 07:10:11;;;;;;;9.70;5.43;;;7.90;99.90;;;;;;5076094;28;20664;-68
2021/12/15 07:12:37;;;;;;;9.03;6.10;;;7.90;99.90;;;;;;5094988;28;20539;-69
2021/12/15 07:15:05;;;;;;;9.43;5.87;;;7.90;99.90;;;;;;5094591;28;20198;-69
2021/12/15 07:17:31;;;;;;;7.40;4.50;;;7.90;99.90;;;;;;5094252;28;20202;-68
2021/12/15 07:20:07;;;;;;;8.03;4.93;;;7.90;99.90;;;;;;5094706;28;20162;-68
2021/12/15 07:25:04;;;;;;;7.43;5.03;;;7.90;99.90;;;;;;5101375;28;20181;-69
2021/12/15 07:27:29;;;;;;;7.23;4.73;;;7.90;99.90;;;;;;5100351;28;20181;-69
2021/12/15 07:29:55;;;;;;;8.73;5.03;;;7.90;99.90;;;;;;5094631;28;20206;-69
2021/12/15 07:32:21;;;;;;;10.77;6.30;;;8.00;99.90;;;;;;5095179;28;20182;-68
2021/12/15 07:34:47;;;;;;;8.20;5.00;;;8.00;99.90;;;;;;5076135;28;20214;-69
2021/12/15 07:37:12;;;;;;;9.43;5.40;;;8.00;99.90;;;;;;5076483;28;20188;-70
2021/12/15 07:39:43;;;;;;;8.70;5.30;;;8.00;99.90;;;;;;5094270;28;20162;-69
2021/12/15 07:42:11;;;;;;;8.03;4.57;;;8.00;99.90;;;;;;5094175;28;20252;-69
2021/12/15 07:44:38;;;;;;;6.93;3.87;;;8.00;99.90;;;;;;5094867;28;20151;-70
2021/12/15 07:47:06;;;;;;;6.83;3.87;;;8.00;99.90;;;;;;5093897;28;20598;-67
2021/12/15 07:49:32;;;;;;;5.77;3.73;;;8.10;99.90;;;;;;5076556;28;20174;-69
2021/12/15 07:52:01;;;;;;;9.67;3.67;;;8.00;99.90;;;;;;5094192;28;20169;-69
2021/12/15 07:54:36;;;;;;;6.83;4.67;;;8.10;99.90;;;;;;5093663;28;20587;-69
2021/12/15 07:57:06;;;;;;;5.27;3.20;;;8.10;99.90;;;;;;5094017;28;20162;-69
2021/12/15 07:59:31;;;;;;;6.30;3.90;;;8.10;99.90;;;;;;5094404;28;20159;-69
2021/12/15 08:01:57;;;;;;;5.10;3.23;;;8.20;99.90;;;;;;5094122;28;20220;-69
2021/12/15 08:04:23;;;;;;;4.33;3.30;;;8.20;99.90;;;;;;5093624;28;20267;-69
2021/12/15 08:06:48;;;;;;;7.77;3.87;;;8.20;99.90;;;;;;5094223;28;20162;-68
2021/12/15 08:09:15;;;;;;;6.47;4.00;;;8.20;99.90;;;;;;5093879;28;20172;-70
2021/12/15 08:11:41;;;;;;;9.10;5.20;;;8.20;99.90;;;;;;5094352;28;20569;-68
2021/12/15 08:14:07;;;;;;;9.00;4.77;;;8.30;99.90;;;;;;5094163;28;20199;-69
2021/12/15 08:16:34;;;;;;;5.47;3.47;;;8.30;99.90;;;;;;5094454;28;20178;-69
2021/12/15 08:19:00;;;;;;;11.70;5.10;;;8.40;99.90;;;;;;5090471;28;20190;-70
2021/12/15 08:21:26;;;;;;;8.30;4.93;;;8.40;99.90;;;;;;5099617;28;20243;-70
2021/12/15 08:23:51;;;;;;;5.37;3.27;;;8.40;99.90;;;;;;5101744;28;20166;-70
2021/12/15 08:26:17;;;;;;;7.90;4.87;;;8.40;99.90;;;;;;5082222;28;20307;-71
2021/12/15 08:28:43;;;;;;;5.33;3.67;;;8.50;99.90;;;;;;5101670;28;20167;-70
2021/12/15 08:31:09;;;;;;;4.53;3.27;;;8.60;99.90;;;;;;5093897;28;20232;-70
2021/12/15 08:33:35;;;;;;;7.93;3.60;;;8.50;99.90;;;;;;5075197;28;20256;-70
2021/12/15 08:36:10;;;;;;;6.43;3.70;;;8.50;99.90;;;;;;5093315;28;20287;-69
2021/12/15 08:38:39;;;;;;;6.27;3.53;;;8.50;99.90;;;;;;5075724;28;20501;-69
2021/12/15 08:41:09;;;;;;;6.20;3.70;;;8.50;99.90;;;;;;5093043;28;20551;-70
2021/12/15 08:43:36;;;;;;;7.53;3.80;;;8.50;99.90;;;;;;5093082;28;20163;-69
2021/12/15 08:46:09;;;;;;;5.93;3.50;;;8.60;99.90;;;;;;5092985;28;20499;-68
2021/12/15 08:48:37;;;;;;;6.17;3.53;;;8.50;99.90;;;;;;5093264;28;20245;-69
2021/12/15 08:51:05;;;;;;;5.00;3.23;;;8.60;99.90;;;;;;5092969;28;20666;-69
2021/12/15 08:53:31;;;;;;;7.30;3.30;;;8.60;99.90;;;;;;5093097;28;20201;-69
2021/12/15 08:55:57;;;;;;;6.17;3.27;;;8.60;99.90;;;;;;5093386;28;20163;-71
2021/12/15 08:58:24;;;;;;;7.47;3.97;;;8.60;99.90;;;;;;5093121;28;20660;-69
2021/12/15 09:00:52;;;;;;;18.63;9.27;;;8.60;99.90;;;;;;5093502;28;20171;-69
2021/12/15 09:03:19;;;;;;;9.60;5.17;;;8.60;99.90;;;;;;5093283;28;20452;-69
2021/12/15 09:05:45;;;;;;;8.63;5.47;;;8.70;99.90;;;;;;5092797;28;20165;-69
2021/12/15 09:08:13;;;;;;;7.33;4.87;;;8.70;99.90;;;;;;5093109;28;20174;-68
2021/12/15 09:10:40;;;;;;;9.43;5.40;;;8.70;99.90;;;;;;5093614;28;20492;-68
2021/12/15 09:13:07;;;;;;;7.73;4.23;;;8.60;99.90;;;;;;5093949;28;20266;-70
2021/12/15 09:15:33;;;;;;;6.03;3.73;;;8.70;99.90;;;;;;5094312;28;20505;-70
2021/12/15 09:17:58;;;;;;;5.67;3.27;;;8.80;99.90;;;;;;5075258;28;20223;-69
2021/12/15 09:20:27;;;;;;;6.53;4.07;;;8.80;99.90;;;;;;5093034;28;20253;-70
2021/12/15 09:22:54;;;;;;;8.13;3.80;;;8.80;99.90;;;;;;5092912;28;20503;-69
2021/12/15 09:25:20;;;;;;;6.57;4.00;;;8.90;99.90;;;;;;5092819;28;20159;-70
2021/12/15 09:27:47;;;;;;;6.97;3.77;;;8.90;99.90;;;;;;5093098;28;20186;-70
2021/12/15 09:30:18;;;;;;;5.83;3.83;;;8.90;99.90;;;;;;5092795;28;20181;-69
2021/12/15 09:32:44;;;;;;;6.00;3.17;;;9.00;99.90;;;;;;5095237;28;20543;-69
2021/12/15 09:35:12;;;;;;;5.37;3.30;;;9.00;99.90;;;;;;5096710;28;20260;-70
2021/12/15 09:37:38;;;;;;;6.10;3.37;;;9.10;99.90;;;;;;5096907;28;20216;-70
2021/12/15 09:40:07;;;;;;;7.97;3.47;;;9.00;99.90;;;;;;5079064;28;20601;-70
2021/12/15 09:42:36;;;;;;;5.17;3.37;;;9.10;99.90;;;;;;5096796;28;20167;-70
2021/12/15 09:45:34;;;;;;;6.23;3.40;;;9.10;99.90;;;;;;5096948;28;20254;-70
2021/12/15 10:17:51;;;;;;;6.20;3.37;;;9.40;99.90;;;;;;5099700;28;20173;-70
2021/12/15 10:20:23;;;;;;;6.10;3.60;;;9.30;99.90;;;;;;5091614;28;20228;-70
2021/12/15 10:22:53;;;;;;;6.70;3.83;;;9.20;99.90;;;;;;5096192;28;20167;-69
2021/12/15 10:25:25;;;;;;;6.67;3.97;;;9.20;99.90;;;;;;5096005;28;20197;-69
2021/12/15 10:27:58;;;;;;;7.03;3.60;;;9.30;99.90;;;;;;5095643;28;20159;-70
2021/12/15 10:30:32;;;;;;;10.23;4.00;;;9.30;99.90;;;;;;5095968;28;20189;-69
2021/12/15 10:33:05;;;;;;;5.73;3.97;;;9.40;99.90;;;;;;5095777;28;20158;-68
2021/12/15 10:35:36;;;;;;;6.00;3.80;;;9.40;99.90;;;;;;5095538;28;20250;-68
2021/12/15 10:38:29;;;;;;;7.23;4.10;;;9.30;99.90;;;;;;5096498;28;20151;-69
2021/12/15 10:41:07;;;;;;;15.57;6.60;;;9.40;99.90;;;;;;5097857;28;20242;-69
2021/12/15 10:43:53;;;;;;;30.43;15.43;;;9.40;99.90;;;;;;5100796;28;20163;-71
2021/12/15 10:46:27;;;;;;;16.10;8.23;;;9.50;99.90;;;;;;5103014;28;20220;-69
2021/12/15 10:49:04;;;;;;;8.90;5.30;;;9.60;99.90;;;;;;5103516;28;20162;-69
2021/12/15 10:51:53;;;;;;;8.40;5.27;;;9.60;99.90;;;;;;5102147;28;20163;-69
2021/12/15 10:54:30;;;;;;;11.93;7.00;;;9.50;99.90;;;;;;5079002;28;20198;-69
2021/12/15 10:56:56;;;;;;;6.60;4.03;;;9.40;99.90;;;;;;5095693;28;20162;-70
2021/12/15 10:59:24;;;;;;;7.20;4.50;;;9.60;99.90;;;;;;5097356;28;20645;-70
2021/12/15 11:01:56;;;;;;;4.57;3.40;;;9.70;99.90;;;;;;5104064;28;20174;-69
2021/12/15 11:04:24;;;;;;;9.30;4.43;;;9.70;99.90;;;;;;5102842;28;20159;-69
2021/12/15 11:07:38;;;;;;;5.10;3.50;;;9.80;99.90;;;;;;5099681;28;20166;-70
2021/12/15 11:10:25;;;;;;;6.50;3.80;;;9.80;99.90;;;;;;5089513;28;20190;-69
2021/12/15 11:12:53;;;;;;;5.80;3.60;;;9.80;99.90;;;;;;5094488;28;20243;-70
2021/12/15 11:15:25;;;;;;;5.57;3.20;;;9.80;99.90;;;;;;5095532;28;20286;-69
2021/12/15 11:17:56;;;;;;;7.33;4.27;;;9.80;99.90;;;;;;5099892;28;20155;-69
2021/12/15 11:20:24;;;;;;;6.70;4.00;;;9.70;99.90;;;;;;5094818;28;20161;-69
2021/12/15 11:22:55;;;;;;;6.40;3.77;;;9.70;99.90;;;;;;5095378;28;20163;-69
2021/12/15 11:25:39;;;;;;;5.13;3.50;;;9.70;99.90;;;;;;5095270;28;20182;-69
2021/12/15 11:28:16;;;;;;;5.83;3.40;;;9.70;99.90;;;;;;5094532;28;20155;-69
2021/12/15 11:30:58;;;;;;;4.40;3.30;;;9.70;99.90;;;;;;5094794;28;20169;-70
2021/12/15 11:33:25;;;;;;;5.63;3.47;;;9.60;99.90;;;;;;5094804;28;20595;-69
2021/12/15 11:35:58;;;;;;;4.20;3.07;;;9.60;99.90;;;;;;5100677;28;20222;-69
2021/12/15 11:38:37;;;;;;;6.80;3.10;;;9.60;99.90;;;;;;5106631;28;20159;-69
2021/12/15 11:41:08;;;;;;;8.43;5.60;;;9.60;99.90;;;;;;5106479;28;20186;-69
2021/12/15 11:43:42;;;;;;;4.67;3.23;;;9.70;99.90;;;;;;5105543;28;20170;-70
2021/12/15 11:46:16;;;;;;;5.40;3.57;;;9.60;99.90;;;;;;5094999;28;20170;-70
2021/12/15 11:48:44;;;;;;;5.70;3.17;;;9.60;99.90;;;;;;5094848;28;20240;-70
2021/12/15 11:51:10;;;;;;;4.60;3.33;;;9.60;99.90;;;;;;5094775;28;20159;-71
2021/12/15 11:53:43;;;;;;;6.00;3.60;;;9.50;99.90;;;;;;5095057;28;20230;-70
2021/12/15 11:56:22;;;;;;;4.93;3.13;;;9.50;99.90;;;;;;5094846;28;20204;-69
2021/12/15 11:58:52;;;;;;;4.97;3.40;;;9.50;99.90;;;;;;5094473;28;20598;-69
2021/12/15 12:01:38;;;;;;;8.03;3.73;;;9.50;99.90;;;;;;5094420;28;20167;-70
2021/12/15 12:04:32;;;;;;;7.50;3.70;;;9.50;99.90;;;;;;5094255;28;20167;-67
2021/12/15 12:07:23;;;;;;;5.53;3.70;;;9.40;99.90;;;;;;5093714;28;20193;-70
2021/12/15 12:09:54;;;;;;;6.40;3.37;;;9.50;99.90;;;;;;5094292;28;20659;-68
2021/12/15 12:12:23;;;;;;;5.10;3.43;;;9.40;99.90;;;;;;5094058;28;20170;-69
2021/12/15 12:14:49;;;;;;;8.27;3.63;;;9.40;99.90;;;;;;5094275;28;20186;-69
2021/12/15 12:17:28;;;;;;;6.40;3.90;;;9.30;99.90;;;;;;5094234;28;20158;-70
2021/12/15 12:20:16;;;;;;;7.63;3.97;;;9.30;99.90;;;;;;5093938;28;20208;-69
2021/12/15 12:22:46;;;;;;;5.20;3.40;;;9.20;99.90;;;;;;5093673;28;20162;-69
2021/12/15 12:25:23;;;;;;;6.30;4.07;;;9.20;99.90;;;;;;5094140;28;20162;-69
2021/12/15 12:27:51;;;;;;;10.50;4.77;;;9.20;99.90;;;;;;5093181;28;20186;-68
2021/12/15 12:30:25;;;;;;;6.20;4.33;;;9.10;99.90;;;;;;5093706;28;20163;-69
2021/12/15 12:32:53;;;;;;;6.00;4.17;;;9.20;99.90;;;;;;5094270;28;20185;-69
2021/12/15 12:35:29;;;;;;;7.10;4.17;;;9.10;99.90;;;;;;5093730;28;20234;-70
2021/12/15 12:38:04;;;;;;;6.00;4.10;;;9.00;99.90;;;;;;5093162;28;20204;-69
2021/12/15 12:40:36;;;;;;;5.97;4.17;;;9.00;99.90;;;;;;5094116;28;20170;-69
2021/12/15 12:43:23;;;;;;;7.63;4.23;;;9.00;99.90;;;;;;5086770;28;20579;-70
2021/12/15 12:46:19;;;;;;;5.10;3.93;;;9.00;99.90;;;;;;5096121;28;20155;-68
2021/12/15 13:00:27;;;;;;;6.20;4.40;;;9.10;99.90;;;;;;5093255;28;20202;-70
2021/12/15 13:03:11;;;;;;;7.63;4.63;;;9.10;99.90;;;;;;5093903;28;20591;-69
2021/12/15 13:05:48;;;;;;;7.63;5.00;;;9.10;99.90;;;;;;5093451;28;20159;-69
2021/12/15 13:08:29;;;;;;;8.30;5.03;;;9.10;99.90;;;;;;5102476;28;20552;-70
2021/12/15 13:11:20;;;;;;;7.37;4.30;;;9.20;99.90;;;;;;5100818;28;20159;-69
2021/12/15 13:14:08;;;;;;;7.10;4.70;;;9.10;99.90;;;;;;5079371;28;20198;-70
2021/12/15 13:16:54;;;;;;;7.37;4.83;;;9.20;99.90;;;;;;5097246;28;20230;-70
2021/12/15 13:19:22;;;;;;;5.60;4.30;;;9.20;99.90;;;;;;5097972;28;20235;-69
2021/12/15 13:22:18;;;;;;;6.27;4.40;;;9.30;99.90;;;;;;5097713;28;20167;-69
2021/12/15 13:30:36;;;;;;;6.87;4.10;;;9.20;99.90;;;;;;5098544;28;20260;-70
2021/12/15 13:33:11;;;;;;;6.67;4.27;;;9.30;99.90;;;;;;5083454;28;20179;-69
2021/12/15 13:35:48;;;;;;;4.60;3.30;;;9.20;99.90;;;;;;5101013;28;20304;-71
2021/12/15 13:38:22;;;;;;;7.00;4.10;;;9.20;99.90;;;;;;5102152;28;20181;-69
2021/12/15 13:42:00;;;;;;;7.90;4.53;;;9.20;99.90;;;;;;5097804;28;20159;-70
2021/12/15 13:44:35;;;;;;;5.50;3.67;;;9.20;99.90;;;;;;5092374;28;20598;-69
2021/12/15 13:47:15;;;;;;;8.33;4.63;;;9.30;99.90;;;;;;5096950;28;20265;-69
2021/12/15 13:49:46;;;;;;;5.17;3.90;;;9.30;99.90;;;;;;5078271;28;20174;-69
2021/12/15 13:52:30;;;;;;;6.83;4.17;;;9.30;99.90;;;;;;5097141;28;20167;-70
2021/12/15 13:55:05;;;;;;;5.47;3.27;;;9.30;99.90;;;;;;5077973;28;20195;-69
2021/12/15 13:57:37;;;;;;;4.93;3.73;;;9.30;99.90;;;;;;5096828;28;20167;-70
2021/12/15 14:00:16;;;;;;;6.87;3.53;;;9.30;99.90;;;;;;5097067;28;20504;-70
2021/12/15 14:03:02;;;;;;;5.77;3.33;;;9.30;99.90;;;;;;5078954;28;20559;-69
2021/12/15 14:06:04;;;;;;;5.17;2.80;;;9.30;99.90;;;;;;5096258;28;20166;-69
2021/12/15 14:08:55;;;;;;;8.03;4.60;;;9.40;99.90;;;;;;5076581;28;20189;-68
2021/12/15 14:11:22;;;;;;;5.77;3.47;;;9.40;99.90;;;;;;5095848;28;20605;-69
2021/12/15 14:14:20;;;;;;;5.03;3.50;;;9.40;99.90;;;;;;5078432;28;20565;-69
2021/12/15 14:16:48;;;;;;;6.20;3.80;;;9.30;99.90;;;;;;5096226;28;20163;-69
2021/12/15 14:19:27;;;;;;;5.07;3.47;;;9.40;99.90;;;;;;5076898;28;20257;-69
2021/12/15 14:21:58;;;;;;;7.20;3.10;;;9.40;99.90;;;;;;5096426;28;20163;-70
2021/12/15 14:24:23;;;;;;;4.13;2.90;;;9.50;99.90;;;;;;5096541;28;20169;-70
2021/12/15 14:26:49;;;;;;;5.00;3.27;;;9.50;99.90;;;;;;5096613;28;20163;-68
2021/12/15 14:29:22;;;;;;;6.37;3.30;;;9.50;99.90;;;;;;5079008;28;20171;-70
2021/12/15 14:31:50;;;;;;;4.20;2.93;;;9.50;99.90;;;;;;5098658;28;20181;-70
2021/12/15 14:34:23;;;;;;;7.73;5.10;;;9.50;99.90;;;;;;5099886;28;20377;-69
2021/12/15 14:36:54;;;;;;;6.33;4.00;;;9.40;99.90;;;;;;5100579;28;20245;-70
2021/12/15 14:39:27;;;;;;;12.63;5.87;;;9.40;99.90;;;;;;5101127;28;20178;-69
2021/12/15 14:41:58;;;;;;;5.67;3.37;;;9.40;99.90;;;;;;5099320;28;20314;-69
2021/12/15 14:44:31;;;;;;;16.53;7.00;;;9.40;99.90;;;;;;5102783;28;20249;-71